Huvudsida
METAR-TAF:

METAR-TAF

Flygplatser :

Amman Civil Airport

Amman, Jordanien

latitud: 31-59N, longitud: 035-59E, höjd: 767 m

Aktuellt väderrapport

Denna rapport gjordes för 42 minuter sedan, klockan 12:00 UTC
Vind 3 kt från nord/nordost
Temperatur 24°C
Fuktighet 22%
Tryck 1022 hPa
Sikt: 5000 m
torrdis

METAR: OJAM 251200Z 03003KT 5000 HZ NSC 24/01 Q1022 NOSIG

Tid: 15:42 (12:42 UTC)

Väderprognos

Denna rapport gjordes för 2 timmar och 35 minuter sedan, klockan 10:07 UTC
Prognos gäller från 25 kl. 12 UTC till 26 kl. 18 UTC
Vind 8 kt från ost
Sikt: 5000 m
torrdis
Blir
från 25 kl. 18 UTC till 25 kl. 20 UTC
Vind 2 kt varierande vindriktning
Sikt: 6000 m

TAF: OJAM 251007Z 2512/2618 08008KT 5000 HZ NSC BECMG 2518/2520 VRB02KT 6000

Aktuella väderrapporter och prognoser från 4000 flygplatser (METAR- och TAF-rapporter).

De tillgängliga stationerna syns som gula och röda prickar på kartan.

För musen över prickarna för att se namnen på stationerna.

Klicka sedan för att få väderrapporter och prognoser.

För att ändra kartan: Klicka på de gröna knapparna med ett svart kors på för att zooma in; den gröna knappen med ett streck på för att zooma ut; eller på de gröna pilarna för angränsande kartor.


METAR-TAF: